createdAt,value
2023-04-07T00:00:44.725Z,96682.47
2023-04-07T00:02:46.999Z,96682.81
2023-04-07T00:04:48.660Z,96677.88
2023-04-07T00:06:50.305Z,96675.59
2023-04-07T00:08:51.860Z,96683.28
2023-04-07T00:10:53.431Z,96675.59
2023-04-07T00:12:55.084Z,96683.63
2023-04-07T00:14:56.682Z,96680.97
2023-04-07T00:16:58.182Z,96667.91
2023-04-07T00:18:59.651Z,96670.59
2023-04-07T00:21:01.145Z,96665.59
2023-04-07T00:23:02.782Z,96672.50
2023-04-07T00:25:04.684Z,96671.00
2023-04-07T00:27:06.262Z,96664.09
2023-04-07T00:29:07.803Z,96663.72
2023-04-07T00:31:09.449Z,96669.44
2023-04-07T00:33:11.213Z,96654.88
2023-04-07T00:35:12.746Z,96659.50
2023-04-07T00:37:14.349Z,96656.03
2023-04-07T00:39:15.803Z,96653.31
2023-04-07T00:41:17.650Z,96643.38
2023-04-07T00:43:19.652Z,96643.41
2023-04-07T00:45:21.265Z,96645.72
2023-04-07T00:47:22.843Z,96644.94
2023-04-07T00:49:24.644Z,96635.00
2023-04-07T00:51:26.948Z,96639.59
2023-04-07T00:53:29.146Z,96631.16
2023-04-07T00:55:30.995Z,96619.66
2023-04-07T00:57:32.626Z,96635.38
2023-04-07T00:59:34.654Z,96625.41
2023-04-07T01:01:47.245Z,96623.50
2023-04-07T01:03:57.687Z,96628.06
2023-04-07T01:06:03.243Z,96618.91
2023-04-07T01:08:20.767Z,96622.31
2023-04-07T01:10:33.877Z,96609.66
2023-04-07T01:13:23.902Z,96617.75
2023-04-07T01:15:30.739Z,96619.66
2023-04-07T01:17:36.388Z,96610.44
2023-04-07T01:19:43.171Z,96614.31
2023-04-07T01:21:49.384Z,96610.47
2023-04-07T01:24:12.969Z,96616.59
2023-04-07T01:26:21.906Z,96605.88
2023-04-07T01:28:56.191Z,96614.31
2023-04-07T01:30:59.885Z,96603.56
2023-04-07T01:33:02.232Z,96611.97
2023-04-07T01:35:06.364Z,96614.28
2023-04-07T01:37:09.688Z,96612.00
2023-04-07T01:39:13.149Z,96605.88
2023-04-07T01:41:16.484Z,96606.63
2023-04-07T01:43:18.549Z,96598.97
2023-04-07T01:45:20.613Z,96597.81
2023-04-07T01:47:23.434Z,96596.66
2023-04-07T01:49:27.233Z,96602.03
2023-04-07T01:51:31.036Z,96595.91
2023-04-07T01:53:33.163Z,96600.50
2023-04-07T01:55:35.226Z,96592.47
2023-04-07T01:57:40.488Z,96594.75
2023-04-07T01:59:48.119Z,96591.31
2023-04-07T02:01:50.515Z,96590.53
2023-04-07T02:04:20.128Z,96582.88
2023-04-07T02:06:32.051Z,96588.25
2023-04-07T02:08:36.892Z,96588.63
2023-04-07T02:10:38.986Z,96582.47
2023-04-07T02:12:42.573Z,96589.41
2023-04-07T02:14:50.549Z,96589.38
2023-04-07T02:16:53.705Z,96584.78
2023-04-07T02:18:56.253Z,96582.84
2023-04-07T02:20:59.278Z,96581.69
2023-04-07T02:23:00.802Z,96576.75
2023-04-07T02:25:02.388Z,96582.50
2023-04-07T02:27:04.215Z,96579.06
2023-04-07T02:29:06.116Z,96581.31
2023-04-07T02:31:07.632Z,96580.53
2023-04-07T02:33:09.204Z,96569.06
2023-04-07T02:35:11.942Z,96562.94
2023-04-07T02:37:13.400Z,96571.38
2023-04-07T02:39:15.021Z,96571.00
2023-04-07T02:41:16.642Z,96571.78
2023-04-07T02:43:20.686Z,96569.44
2023-04-07T02:45:22.345Z,96567.19
2023-04-07T02:47:24.080Z,96567.56
2023-04-07T02:49:25.617Z,96570.97
2023-04-07T02:51:27.172Z,96567.50
2023-04-07T02:53:28.759Z,96565.63
2023-04-07T02:55:30.482Z,96570.25
2023-04-07T02:57:31.981Z,96557.59
2023-04-07T02:59:36.985Z,96568.31
2023-04-07T03:01:40.335Z,96562.22
2023-04-07T03:03:44.757Z,96565.28
2023-04-07T03:05:50.907Z,96564.50
2023-04-07T03:07:52.479Z,96565.28
2023-04-07T03:09:53.999Z,96555.31
2023-04-07T03:11:55.699Z,96553.00
2023-04-07T03:13:57.612Z,96563.34
2023-04-07T03:16:00.560Z,96553.72
2023-04-07T03:18:07.596Z,96559.84
2023-04-07T03:20:09.884Z,96557.56
2023-04-07T03:22:12.655Z,96556.81
2023-04-07T03:24:22.245Z,96555.66
2023-04-07T03:26:23.779Z,96552.16
2023-04-07T03:28:25.768Z,96546.06
2023-04-07T03:30:27.428Z,96549.91
2023-04-07T03:32:28.947Z,96551.06
2023-04-07T03:34:31.453Z,96554.16
2023-04-07T03:36:33.945Z,96552.22
2023-04-07T03:38:38.774Z,96547.66
2023-04-07T03:40:40.345Z,96549.13
2023-04-07T03:42:41.893Z,96546.03
2023-04-07T03:44:46.185Z,96538.72
2023-04-07T03:46:50.435Z,96537.28
2023-04-07T03:48:53.679Z,96536.88
2023-04-07T03:50:56.641Z,96534.56
2023-04-07T03:52:58.363Z,96533.81
2023-04-07T03:55:03.340Z,96535.00
2023-04-07T03:57:06.928Z,96544.19
2023-04-07T03:59:13.243Z,96540.72
2023-04-07T04:01:26.336Z,96535.75
2023-04-07T04:03:29.349Z,96531.91
2023-04-07T04:05:46.295Z,96538.44
2023-04-07T04:07:53.146Z,96544.19
2023-04-07T04:09:56.855Z,96541.50
2023-04-07T04:11:58.639Z,96543.00
2023-04-07T04:14:00.803Z,96526.94
2023-04-07T04:16:02.973Z,96533.06
2023-04-07T04:18:05.061Z,96541.53
2023-04-07T04:20:08.152Z,96542.28
2023-04-07T04:22:17.708Z,96535.78
2023-04-07T04:24:26.145Z,96538.06
2023-04-07T04:26:29.765Z,96538.47
2023-04-07T04:28:36.761Z,96536.53
2023-04-07T04:30:41.895Z,96540.38
2023-04-07T04:32:44.542Z,96538.44
2023-04-07T04:34:47.088Z,96540.34
2023-04-07T04:36:50.557Z,96535.34
2023-04-07T04:38:53.851Z,96533.84
2023-04-07T04:40:56.508Z,96543.06
2023-04-07T04:43:06.998Z,96539.59
2023-04-07T04:45:11.065Z,96539.13
2023-04-07T04:47:15.899Z,96540.63
2023-04-07T04:49:18.906Z,96541.00
2023-04-07T04:51:22.297Z,96541.34
2023-04-07T04:53:29.111Z,96544.44
2023-04-07T04:55:34.072Z,96548.31
2023-04-07T04:57:36.116Z,96546.81
2023-04-07T04:59:42.406Z,96544.94
2023-04-07T05:01:44.187Z,96546.00
2023-04-07T05:03:49.877Z,96539.13
2023-04-07T05:05:58.780Z,96543.66
2023-04-07T05:08:01.068Z,96544.44
2023-04-07T05:10:08.935Z,96537.63
2023-04-07T05:12:14.167Z,96542.66
2023-04-07T05:14:21.744Z,96546.09
2023-04-07T05:16:29.550Z,96541.50
2023-04-07T05:18:31.404Z,96544.94
2023-04-07T05:20:33.916Z,96538.81
2023-04-07T05:22:36.340Z,96546.84
2023-04-07T05:24:39.363Z,96541.91
2023-04-07T05:26:40.962Z,96545.38
2023-04-07T05:28:43.489Z,96543.06
2023-04-07T05:30:51.021Z,96530.34
2023-04-07T05:32:53.631Z,96529.97
2023-04-07T05:35:15.746Z,96531.16
2023-04-07T05:37:24.707Z,96539.22
2023-04-07T05:39:27.030Z,96541.91
2023-04-07T05:41:30.541Z,96536.94
2023-04-07T05:43:32.230Z,96533.88
2023-04-07T05:45:34.004Z,96539.97
2023-04-07T05:47:35.936Z,96539.22
2023-04-07T05:49:37.734Z,96539.22
2023-04-07T05:51:42.710Z,96543.81
2023-04-07T05:53:47.508Z,96537.69
2023-04-07T05:55:49.628Z,96536.56
2023-04-07T05:58:00.182Z,96538.09
2023-04-07T06:00:05.370Z,96535.78
2023-04-07T06:02:16.030Z,96533.09
2023-04-07T06:04:20.512Z,96540.38
2023-04-07T06:06:24.650Z,96543.03
2023-04-07T06:08:26.160Z,96537.63
2023-04-07T06:10:27.864Z,96551.44
2023-04-07T06:12:29.380Z,96546.88
2023-04-07T06:14:31.315Z,96543.84
2023-04-07T06:16:32.830Z,96547.63
2023-04-07T06:18:34.503Z,96539.59
2023-04-07T06:20:36.257Z,96538.44
2023-04-07T06:22:40.135Z,96549.53
2023-04-07T06:24:42.717Z,96545.75
2023-04-07T06:26:44.956Z,96548.44
2023-04-07T06:28:46.660Z,96552.25
2023-04-07T06:30:49.173Z,96550.69
2023-04-07T06:32:51.364Z,96545.34
2023-04-07T06:34:52.963Z,96549.59
2023-04-07T06:36:57.997Z,96548.03
2023-04-07T06:39:00.290Z,96541.53
2023-04-07T06:41:01.806Z,96551.88
2023-04-07T06:43:04.052Z,96551.47
2023-04-07T06:45:14.700Z,96555.31
2023-04-07T06:47:16.713Z,96550.72
2023-04-07T06:49:18.767Z,96544.59
2023-04-07T06:51:20.272Z,96549.19
2023-04-07T06:53:21.822Z,96549.56
2023-04-07T06:55:23.409Z,96549.94
2023-04-07T06:57:25.501Z,96553.78
2023-04-07T06:59:27.009Z,96543.44
2023-04-07T07:01:28.730Z,96537.69
2023-04-07T07:03:31.619Z,96546.13
2023-04-07T07:05:33.251Z,96550.31
2023-04-07T07:07:35.076Z,96547.28
2023-04-07T07:09:36.720Z,96554.16
2023-04-07T07:11:38.373Z,96548.41
2023-04-07T07:13:39.852Z,96554.56
2023-04-07T07:15:41.409Z,96558.00
2023-04-07T07:17:43.003Z,96555.31
2023-04-07T07:19:44.461Z,96559.16
2023-04-07T07:21:45.977Z,96554.53
2023-04-07T07:23:47.645Z,96554.16
2023-04-07T07:25:49.204Z,96553.78
2023-04-07T07:27:53.314Z,96568.31
2023-04-07T07:29:54.884Z,96565.66
2023-04-07T07:31:56.499Z,96563.72
2023-04-07T07:33:58.027Z,96571.41
2023-04-07T07:35:59.639Z,96564.88
2023-04-07T07:38:01.348Z,96561.06
2023-04-07T07:40:02.992Z,96558.78
2023-04-07T07:42:04.568Z,96561.44
2023-04-07T07:44:06.156Z,96561.41
2023-04-07T07:46:07.777Z,96565.25
2023-04-07T07:48:09.247Z,96567.53
2023-04-07T07:50:11.158Z,96569.47
2023-04-07T07:52:12.670Z,96565.63
2023-04-07T07:54:14.178Z,96573.31
2023-04-07T07:56:15.924Z,96574.47
2023-04-07T07:58:17.478Z,96574.06
2023-04-07T08:00:19.150Z,96571.38
2023-04-07T08:02:20.709Z,96579.44
2023-04-07T08:04:23.393Z,96575.19
2023-04-07T08:06:25.220Z,96577.88
2023-04-07T08:08:26.814Z,96581.34
2023-04-07T08:10:28.594Z,96584.03
2023-04-07T08:12:30.130Z,96585.94
2023-04-07T08:14:31.638Z,96585.94
2023-04-07T08:16:33.258Z,96587.44
2023-04-07T08:18:34.880Z,96582.84
2023-04-07T08:20:36.723Z,96594.25
2023-04-07T08:22:38.196Z,96591.59
2023-04-07T08:24:39.741Z,96595.44
2023-04-07T08:26:41.262Z,96593.19
2023-04-07T08:28:42.780Z,96597.44
2023-04-07T08:30:44.336Z,96592.44
2023-04-07T08:32:45.974Z,96602.78
2023-04-07T08:34:47.505Z,96606.63
2023-04-07T08:36:49.100Z,96608.16
2023-04-07T08:38:50.796Z,96609.72
2023-04-07T08:41:00.696Z,96615.06
2023-04-07T08:43:09.509Z,96607.38
2023-04-07T08:45:12.688Z,96606.25
2023-04-07T08:47:17.223Z,96612.38
2023-04-07T08:49:19.849Z,96614.28
2023-04-07T08:51:29.692Z,96615.06
2023-04-07T08:53:41.432Z,96612.41
2023-04-07T08:55:42.994Z,96616.19
2023-04-07T08:57:44.710Z,96617.38
2023-04-07T08:59:48.999Z,96615.03
2023-04-07T09:01:51.717Z,96609.63
2023-04-07T09:03:53.346Z,96619.97
2023-04-07T09:05:56.663Z,96622.22
2023-04-07T09:07:58.136Z,96622.66
2023-04-07T09:10:00.243Z,96619.63
2023-04-07T09:12:01.881Z,96624.97
2023-04-07T09:14:03.582Z,96624.59
2023-04-07T09:16:05.470Z,96619.19
2023-04-07T09:18:07.231Z,96624.59
2023-04-07T09:20:09.363Z,96625.78
2023-04-07T09:22:14.122Z,96626.94
2023-04-07T09:24:23.866Z,96615.78
2023-04-07T09:26:28.193Z,96626.53
2023-04-07T09:28:42.264Z,96631.13
2023-04-07T09:30:54.265Z,96630.41
2023-04-07T09:32:56.535Z,96633.03
2023-04-07T09:34:59.280Z,96626.53
2023-04-07T09:37:01.266Z,96631.50
2023-04-07T09:39:08.580Z,96632.28
2023-04-07T09:41:16.277Z,96635.31
2023-04-07T09:43:19.412Z,96630.34
2023-04-07T09:45:33.835Z,96635.34
2023-04-07T09:47:38.187Z,96637.22
2023-04-07T09:49:53.973Z,96632.53
2023-04-07T09:52:11.040Z,96642.13
2023-04-07T09:54:12.840Z,96638.28
2023-04-07T09:56:19.834Z,96634.13
2023-04-07T09:58:21.800Z,96637.94
2023-04-07T10:00:24.912Z,96635.59
2023-04-07T10:02:26.814Z,96629.41
2023-04-07T10:04:31.359Z,96629.34
2023-04-07T10:06:33.159Z,96635.41
2023-04-07T10:08:37.449Z,96623.28
2023-04-07T10:10:42.770Z,96626.31
2023-04-07T10:12:45.512Z,96635.50
2023-04-07T10:14:48.315Z,96633.88
2023-04-07T10:16:51.802Z,96633.50
2023-04-07T10:18:53.860Z,96635.00
2023-04-07T10:20:56.200Z,96638.47
2023-04-07T10:23:13.110Z,96639.19
2023-04-07T10:25:18.249Z,96639.38
2023-04-07T10:27:24.169Z,96642.53
2023-04-07T10:29:27.193Z,96639.38
2023-04-07T10:31:29.297Z,96645.41
2023-04-07T10:33:51.757Z,96641.72
2023-04-07T10:36:07.177Z,96640.56
2023-04-07T10:38:10.715Z,96638.97
2023-04-07T10:40:18.495Z,96648.03
2023-04-07T10:42:41.229Z,96640.31
2023-04-07T10:44:42.870Z,96651.50
2023-04-07T10:46:48.535Z,96642.47
2023-04-07T10:49:10.094Z,96644.13
2023-04-07T10:51:15.133Z,96648.66
2023-04-07T10:53:17.468Z,96651.41
2023-04-07T10:55:30.211Z,96642.91
2023-04-07T10:57:31.772Z,96651.00
2023-04-07T10:59:34.300Z,96661.41
2023-04-07T11:01:36.251Z,96654.44
2023-04-07T11:03:40.385Z,96658.28
2023-04-07T11:05:42.904Z,96654.31
2023-04-07T11:07:45.998Z,96666.09
2023-04-07T11:09:47.500Z,96665.66
2023-04-07T11:11:49.076Z,96660.81
2023-04-07T11:13:51.561Z,96666.34
2023-04-07T11:15:53.660Z,96664.97
2023-04-07T11:18:08.946Z,96669.47
2023-04-07T11:20:10.889Z,96657.25
2023-04-07T11:22:29.405Z,96655.91
2023-04-07T11:24:39.236Z,96659.34
2023-04-07T11:26:41.556Z,96667.81
2023-04-07T11:28:54.122Z,96663.84
2023-04-07T11:30:58.077Z,96668.44
2023-04-07T11:33:00.227Z,96674.25
2023-04-07T11:35:06.755Z,96670.75
2023-04-07T11:37:25.266Z,96680.78
2023-04-07T11:39:33.433Z,96671.84
2023-04-07T11:41:46.659Z,96675.00
2023-04-07T11:43:50.816Z,96674.53
2023-04-07T11:46:12.028Z,96679.94
2023-04-07T11:48:29.443Z,96670.03
2023-04-07T11:50:41.370Z,96673.81
2023-04-07T11:52:49.494Z,96673.22
2023-04-07T11:54:51.064Z,96683.94
2023-04-07T11:56:55.421Z,96674.66
2023-04-07T11:58:58.051Z,96681.47
2023-04-07T12:01:03.470Z,96679.72
2023-04-07T12:03:16.365Z,96677.19
2023-04-07T12:05:18.147Z,96674.47
2023-04-07T12:07:20.762Z,96675.41
2023-04-07T12:09:30.868Z,96676.06
2023-04-07T12:11:33.048Z,96670.13
2023-04-07T12:13:36.045Z,96669.44
2023-04-07T12:15:37.884Z,96676.78
2023-04-07T12:17:45.784Z,96676.44
2023-04-07T12:19:47.322Z,96669.16
2023-04-07T12:21:48.867Z,96681.94
2023-04-07T12:23:50.636Z,96670.94
2023-04-07T12:25:52.424Z,96675.66
2023-04-07T12:27:54.067Z,96677.69
2023-04-07T12:29:55.579Z,96676.38
2023-04-07T12:31:57.460Z,96671.25
2023-04-07T12:33:59.397Z,96676.22
2023-04-07T12:36:00.992Z,96679.75
2023-04-07T12:38:02.953Z,96681.50
2023-04-07T12:40:04.814Z,96673.69
2023-04-07T12:42:07.518Z,96672.25
2023-04-07T12:44:09.592Z,96683.09
2023-04-07T12:46:11.554Z,96681.59
2023-04-07T12:48:13.425Z,96676.63
2023-04-07T12:50:14.984Z,96681.28
2023-04-07T12:52:16.769Z,96675.88
2023-04-07T12:54:18.654Z,96676.81
2023-04-07T12:56:22.278Z,96676.06
2023-04-07T12:58:25.289Z,96679.22
2023-04-07T13:00:27.126Z,96675.22
2023-04-07T13:02:28.757Z,96681.91
2023-04-07T13:04:31.349Z,96677.25
2023-04-07T13:06:33.462Z,96681.75
2023-04-07T13:08:34.978Z,96689.31
2023-04-07T13:10:36.825Z,96674.31
2023-04-07T13:12:39.808Z,96691.09
2023-04-07T13:14:52.829Z,96687.66
2023-04-07T13:16:59.096Z,96682.38
2023-04-07T13:19:00.761Z,96691.97
2023-04-07T13:21:26.336Z,96689.63
2023-04-07T13:23:26.363Z,96692.56
2023-04-07T13:25:28.129Z,96685.91
2023-04-07T13:27:29.770Z,96680.19
2023-04-07T13:29:32.018Z,96684.03
2023-04-07T13:31:33.622Z,96680.13
2023-04-07T13:33:35.392Z,96682.50
2023-04-07T13:35:37.125Z,96681.13
2023-04-07T13:37:38.697Z,96684.19
2023-04-07T13:39:40.362Z,96687.34
2023-04-07T13:41:41.987Z,96684.47
2023-04-07T13:43:43.564Z,96688.19
2023-04-07T13:45:45.451Z,96686.34
2023-04-07T13:47:47.453Z,96684.66
2023-04-07T13:49:49.325Z,96693.88
2023-04-07T13:51:51.278Z,96686.00
2023-04-07T13:53:52.888Z,96678.72
2023-04-07T13:55:54.478Z,96688.53
2023-04-07T13:57:56.065Z,96675.94
2023-04-07T13:59:57.827Z,96681.63
2023-04-07T14:01:59.638Z,96687.38
2023-04-07T14:04:02.758Z,96682.72
2023-04-07T14:06:04.455Z,96680.78
2023-04-07T14:08:06.050Z,96680.56
2023-04-07T14:10:09.477Z,96685.56
2023-04-07T14:12:12.416Z,96683.59
2023-04-07T14:14:14.102Z,96674.88
2023-04-07T14:16:16.636Z,96681.38
2023-04-07T14:18:18.316Z,96681.03
2023-04-07T14:20:19.960Z,96685.78
2023-04-07T14:22:21.597Z,96679.03
2023-04-07T14:24:23.191Z,96688.34
2023-04-07T14:26:24.818Z,96689.09
2023-04-07T14:28:27.787Z,96691.94
2023-04-07T14:30:30.808Z,96680.50
2023-04-07T14:32:34.143Z,96684.66
2023-04-07T14:34:35.762Z,96682.78
2023-04-07T14:36:37.592Z,96689.41
2023-04-07T14:38:39.352Z,96680.28
2023-04-07T14:40:41.444Z,96685.72
2023-04-07T14:42:43.029Z,96685.81
2023-04-07T14:44:44.668Z,96683.00
2023-04-07T14:46:46.574Z,96677.94
2023-04-07T14:48:48.205Z,96677.25
2023-04-07T14:50:56.408Z,96674.97
2023-04-07T14:53:04.568Z,96681.38
2023-04-07T14:55:06.820Z,96675.09
2023-04-07T14:57:08.590Z,96680.56
2023-04-07T14:59:10.246Z,96679.84
2023-04-07T15:01:11.831Z,96678.84
2023-04-07T15:03:14.063Z,96681.75
2023-04-07T15:05:15.936Z,96694.00
2023-04-07T15:07:17.756Z,96684.91
2023-04-07T15:09:19.366Z,96684.91
2023-04-07T15:11:21.742Z,96689.59
2023-04-07T15:13:23.534Z,96695.03
2023-04-07T15:15:25.628Z,96697.91
2023-04-07T15:17:40.218Z,96696.75
2023-04-07T15:19:45.500Z,96693.31
2023-04-07T15:21:47.216Z,96703.38
2023-04-07T15:23:49.022Z,96703.59
2023-04-07T15:25:55.945Z,96704.28
2023-04-07T15:27:57.619Z,96705.47
2023-04-07T15:29:59.297Z,96702.56
2023-04-07T15:32:01.156Z,96704.06
2023-04-07T15:34:02.839Z,96703.31
2023-04-07T15:36:05.910Z,96707.38
2023-04-07T15:38:07.570Z,96705.41
2023-04-07T15:40:09.475Z,96704.50
2023-04-07T15:42:12.439Z,96704.31
2023-04-07T15:44:18.648Z,96703.84
2023-04-07T15:46:20.315Z,96711.13
2023-04-07T15:48:21.935Z,96715.22
2023-04-07T15:50:24.825Z,96705.94
2023-04-07T15:52:27.586Z,96716.00
2023-04-07T15:54:30.184Z,96710.38
2023-04-07T15:56:31.985Z,96711.19
2023-04-07T15:58:33.633Z,96714.63
2023-04-07T16:00:35.757Z,96709.84
2023-04-07T16:02:38.214Z,96716.00
2023-04-07T16:04:41.435Z,96710.88
2023-04-07T16:06:43.021Z,96718.34
2023-04-07T16:08:44.685Z,96714.94
2023-04-07T16:10:46.401Z,96724.00
2023-04-07T16:12:48.132Z,96716.94
2023-04-07T16:14:50.280Z,96714.72
2023-04-07T16:16:54.370Z,96718.69
2023-04-07T16:18:56.015Z,96721.84
2023-04-07T16:20:57.649Z,96731.13
2023-04-07T16:22:59.261Z,96720.31
2023-04-07T16:25:01.174Z,96728.44
2023-04-07T16:27:04.297Z,96722.13
2023-04-07T16:29:06.179Z,96726.34
2023-04-07T16:31:08.562Z,96721.91
2023-04-07T16:33:10.514Z,96729.31
2023-04-07T16:35:14.769Z,96730.41
2023-04-07T16:37:16.430Z,96734.31
2023-04-07T16:39:18.236Z,96726.78
2023-04-07T16:41:20.234Z,96735.72
2023-04-07T16:43:21.851Z,96734.59
2023-04-07T16:45:23.610Z,96741.16
2023-04-07T16:47:26.100Z,96739.19
2023-04-07T16:49:27.612Z,96742.06
2023-04-07T16:51:29.608Z,96740.97
2023-04-07T16:53:31.225Z,96746.47
2023-04-07T16:55:36.107Z,96745.75
2023-04-07T16:57:38.005Z,96746.59
2023-04-07T16:59:40.396Z,96752.41
2023-04-07T17:01:43.132Z,96756.28
2023-04-07T17:03:48.234Z,96754.25
2023-04-07T17:05:50.898Z,96753.50
2023-04-07T17:07:52.703Z,96762.38
2023-04-07T17:09:54.261Z,96763.50
2023-04-07T17:11:56.369Z,96757.63
2023-04-07T17:13:57.987Z,96762.94
2023-04-07T17:16:02.863Z,96762.66
2023-04-07T17:18:04.527Z,96766.28
2023-04-07T17:20:06.745Z,96771.03
2023-04-07T17:22:08.385Z,96773.56
2023-04-07T17:24:10.164Z,96767.25
2023-04-07T17:26:11.756Z,96780.47
2023-04-07T17:28:13.379Z,96782.06
2023-04-07T17:30:15.129Z,96788.31
2023-04-07T17:32:16.697Z,96790.72
2023-04-07T17:34:18.370Z,96786.13
2023-04-07T17:36:20.165Z,96793.66
2023-04-07T17:38:21.771Z,96794.38
2023-04-07T17:40:23.466Z,96804.59
2023-04-07T17:42:25.147Z,96796.63
2023-04-07T17:44:27.141Z,96801.31
2023-04-07T17:46:29.336Z,96798.88
2023-04-07T17:48:32.105Z,96808.31
2023-04-07T17:50:34.063Z,96802.97
2023-04-07T17:52:36.096Z,96810.31
2023-04-07T17:54:38.124Z,96814.44
2023-04-07T17:56:39.896Z,96816.28
2023-04-07T17:58:41.710Z,96813.66
2023-04-07T18:00:43.390Z,96820.63
2023-04-07T18:02:45.542Z,96821.66
2023-04-07T18:04:47.641Z,96816.72
2023-04-07T18:06:49.934Z,96828.97
2023-04-07T18:08:51.590Z,96827.88
2023-04-07T18:10:53.203Z,96820.94
2023-04-07T18:12:54.991Z,96834.19
2023-04-07T18:14:56.629Z,96840.78
2023-04-07T18:16:58.352Z,96835.09
2023-04-07T18:19:00.691Z,96834.84
2023-04-07T18:21:02.577Z,96835.28
2023-04-07T18:23:05.288Z,96842.31
2023-04-07T18:25:07.222Z,96840.06
2023-04-07T18:27:10.083Z,96845.34
2023-04-07T18:29:14.536Z,96848.78
2023-04-07T18:31:16.297Z,96849.66
2023-04-07T18:33:17.994Z,96846.72
2023-04-07T18:35:19.669Z,96852.47
2023-04-07T18:37:22.075Z,96857.13
2023-04-07T18:39:27.739Z,96855.13
2023-04-07T18:41:29.491Z,96856.28
2023-04-07T18:43:31.279Z,96856.78
2023-04-07T18:45:36.726Z,96865.63
2023-04-07T18:47:38.914Z,96868.25
2023-04-07T18:49:40.632Z,96865.09
2023-04-07T18:51:44.479Z,96862.25
2023-04-07T18:53:46.251Z,96866.81
2023-04-07T18:55:49.109Z,96873.44
2023-04-07T18:57:50.680Z,96869.53
2023-04-07T18:59:52.784Z,96873.94
2023-04-07T19:01:55.499Z,96883.03
2023-04-07T19:03:57.586Z,96875.81
2023-04-07T19:06:02.842Z,96884.22
2023-04-07T19:08:05.450Z,96875.38
2023-04-07T19:10:07.752Z,96878.00
2023-04-07T19:12:09.404Z,96885.97
2023-04-07T19:14:11.180Z,96886.66
2023-04-07T19:16:12.794Z,96891.34
2023-04-07T19:18:14.520Z,96888.59
2023-04-07T19:20:16.193Z,96898.19
2023-04-07T19:22:17.877Z,96892.06
2023-04-07T19:24:19.603Z,96900.56
2023-04-07T19:26:21.641Z,96890.63
2023-04-07T19:28:23.290Z,96902.19
2023-04-07T19:30:24.896Z,96907.00
2023-04-07T19:32:27.249Z,96903.97
2023-04-07T19:34:28.954Z,96910.19
2023-04-07T19:36:31.097Z,96899.06
2023-04-07T19:38:32.736Z,96904.44
2023-04-07T19:40:35.986Z,96913.28
2023-04-07T19:42:39.327Z,96914.09
2023-04-07T19:44:41.416Z,96903.78
2023-04-07T19:46:43.054Z,96918.34
2023-04-07T19:49:03.368Z,96907.59
2023-04-07T19:51:07.101Z,96920.28
2023-04-07T19:53:15.719Z,96915.28
2023-04-07T19:55:17.288Z,96921.00
2023-04-07T19:57:18.776Z,96927.19
2023-04-07T19:59:20.585Z,96922.59
2023-04-07T20:01:22.176Z,96916.50
2023-04-07T20:03:24.001Z,96923.03
2023-04-07T20:05:26.064Z,96926.84
2023-04-07T20:07:27.685Z,96924.13
2023-04-07T20:09:29.274Z,96928.78
2023-04-07T20:11:30.726Z,96933.41
2023-04-07T20:13:34.812Z,96932.22
2023-04-07T20:15:36.687Z,96929.56
2023-04-07T20:17:38.319Z,96942.22
2023-04-07T20:19:41.084Z,96934.16
2023-04-07T20:21:42.658Z,96941.03
2023-04-07T20:23:44.181Z,96939.50
2023-04-07T20:25:45.684Z,96942.59
2023-04-07T20:27:49.054Z,96946.75
2023-04-07T20:29:51.582Z,96944.88
2023-04-07T20:31:53.677Z,96944.13
2023-04-07T20:33:55.245Z,96944.88
2023-04-07T20:35:56.810Z,96947.56
2023-04-07T20:37:59.989Z,96944.88
2023-04-07T20:40:01.574Z,96937.59
2023-04-07T20:42:03.403Z,96939.53
2023-04-07T20:44:05.433Z,96941.06
2023-04-07T20:46:07.276Z,96947.22
2023-04-07T20:48:08.811Z,96946.06
2023-04-07T20:50:10.429Z,96945.66
2023-04-07T20:52:12.377Z,96950.28
2023-04-07T20:54:13.891Z,96949.44
2023-04-07T20:56:15.484Z,96939.88
2023-04-07T20:58:18.358Z,96946.69
2023-04-07T21:00:20.375Z,96943.19
2023-04-07T21:02:21.992Z,96942.81
2023-04-07T21:04:24.444Z,96954.66
2023-04-07T21:06:26.433Z,96956.78
2023-04-07T21:08:27.998Z,96945.09
2023-04-07T21:10:29.543Z,96956.09
2023-04-07T21:12:31.183Z,96944.38
2023-04-07T21:14:32.822Z,96952.09
2023-04-07T21:16:34.356Z,96952.78
2023-04-07T21:18:36.624Z,96951.59
2023-04-07T21:20:38.188Z,96956.19
2023-04-07T21:22:39.748Z,96956.88
2023-04-07T21:24:41.392Z,96959.78
2023-04-07T21:26:42.914Z,96957.13
2023-04-07T21:28:44.403Z,96957.66
2023-04-07T21:30:46.145Z,96950.81
2023-04-07T21:32:47.778Z,96955.19
2023-04-07T21:34:52.496Z,96957.84
2023-04-07T21:36:53.974Z,96955.31
2023-04-07T21:38:55.504Z,96959.81
2023-04-07T21:40:57.486Z,96957.94
2023-04-07T21:42:59.040Z,96962.47
2023-04-07T21:45:00.690Z,96962.47
2023-04-07T21:47:02.417Z,96961.69
2023-04-07T21:49:04.506Z,96958.63
2023-04-07T21:51:06.344Z,96968.31
2023-04-07T21:53:09.373Z,96970.13
2023-04-07T21:55:11.232Z,96966.78
2023-04-07T21:57:13.433Z,96971.34
2023-04-07T21:59:17.158Z,96957.59
2023-04-07T22:01:18.852Z,96965.09
2023-04-07T22:03:20.511Z,96965.19
2023-04-07T22:05:22.164Z,96977.97
2023-04-07T22:07:24.333Z,96980.13
2023-04-07T22:09:26.300Z,96980.06
2023-04-07T22:11:27.862Z,96970.22
2023-04-07T22:13:29.417Z,96979.50
2023-04-07T22:15:31.024Z,96984.41
2023-04-07T22:17:32.565Z,96983.06
2023-04-07T22:19:34.105Z,96980.91
2023-04-07T22:21:35.863Z,96979.75
2023-04-07T22:23:37.630Z,96986.53
2023-04-07T22:25:39.244Z,96983.03
2023-04-07T22:27:40.752Z,96984.53
2023-04-07T22:29:42.226Z,96990.34
2023-04-07T22:31:43.755Z,96992.06
2023-04-07T22:33:45.328Z,96992.78
2023-04-07T22:35:46.922Z,96994.38
2023-04-07T22:37:48.508Z,96999.94
2023-04-07T22:39:50.272Z,96993.28
2023-04-07T22:41:51.788Z,96999.13
2023-04-07T22:43:53.323Z,97002.88
2023-04-07T22:45:54.816Z,97007.94
2023-04-07T22:47:56.365Z,97013.59
2023-04-07T22:49:58.168Z,97005.31
2023-04-07T22:51:59.960Z,97002.28
2023-04-07T22:54:01.438Z,97010.72
2023-04-07T22:56:03.215Z,97006.34
2023-04-07T22:58:04.705Z,97005.84
2023-04-07T23:00:07.038Z,97007.44
2023-04-07T23:02:08.698Z,97013.19
2023-04-07T23:04:10.750Z,97006.72
2023-04-07T23:06:12.221Z,97008.25
2023-04-07T23:08:13.929Z,97009.81
2023-04-07T23:10:15.562Z,97012.19
2023-04-07T23:12:17.058Z,97015.25
2023-04-07T23:14:18.685Z,97017.59
2023-04-07T23:16:20.399Z,97015.75
2023-04-07T23:18:21.925Z,97019.34
2023-04-07T23:20:23.443Z,97014.88
2023-04-07T23:22:24.987Z,97024.75
2023-04-07T23:24:26.486Z,97013.38
2023-04-07T23:26:27.988Z,97017.78
2023-04-07T23:28:29.522Z,97018.06
2023-04-07T23:30:31.140Z,97018.81
2023-04-07T23:32:32.660Z,97016.09
2023-04-07T23:34:34.185Z,97020.31
2023-04-07T23:36:35.737Z,97018.53
2023-04-07T23:38:39.380Z,97024.44
2023-04-07T23:40:41.320Z,97020.19
2023-04-07T23:42:42.856Z,97020.84
2023-04-07T23:44:44.584Z,97018.94
2023-04-07T23:46:46.071Z,97019.84
2023-04-07T23:48:47.620Z,97022.16
2023-04-07T23:50:50.557Z,97019.38
2023-04-07T23:52:51.980Z,97021.06
2023-04-07T23:54:53.688Z,97026.97
2023-04-07T23:56:55.196Z,97027.16
2023-04-07T23:58:56.672Z,97027.16
